Aérodrome :
LOGIN :

S'inscrire | Disclaimer

   EN    FR    IT 

 










Légende :    VFR   VFR Marginal   IFR   IFR Intensif   IFR Très Intensif
Visi : 
Plafond : 
>= 8 km
>= 3000ft
5 à 8 km
1000 à 3000 ft
1500m à 5 km
500 à 1000 ft
800 à 1500m
200 à 500 ft
< 800m
< 200 ft
Symboles :   Orages  Brouillard  Fortes neiges  Fortes précipitations  Vent > 20 kt
SIGMETs :   Divers  Orages  Givrage  Turbulence  Onde Orograph.  Cendres Volcan.







- Altitude de l'aérodrome : 14 ft
- Code IATA : BRE


EDDW - Bremen Neuenland

DERNIER METAR :
  • 131250Z 18015KT 9999 -RA SCT009 OVC012 03/01 Q0997 R88/290095 TEMPO 18015G25KT BKN007

METARs EXPIRÉS :
  • 131220Z 18013KT 9999 -RA BKN009 OVC020 03/01 Q0998 R88/290095 TEMPO 18015G25KT BKN004
  • 131150Z 17016KT 9999 -RA BKN009 OVC020 02/01 Q0999 R88/290095 TEMPO 18015G25KT BKN004
  • 131120Z 17017KT 9999 -RA BKN009 OVC020 02/01 Q1000 R88/290095 TEMPO 18015G25KT BKN004
  • 131050Z 17017KT 9999 -RA BKN012 OVC060 02/01 Q1001 R88/290095 TEMPO 18015G25KT BKN008
  • 131020Z 18019G29KT 9999 -RASN SCT015 OVC060 03/00 Q1002 R88/290095 TEMPO 18015G25KT BKN012

TAF TAF EDDW
Valide du 13 à 12h jusqu'au 14 à 12h UTC


131100Z 1312/1412 18010KT 9999 BKN012
TEMPO 1312/1409 19015G25KT
TEMPO 1312/1324 4000 -RA BKN007
PROB30
TEMPO 1312/1318 2500 -RASN BKN003
BECMG 1400/1403 SCT012
TEMPO 1404/1412 4500 -SHRA BKN012CB
TEMPO 1409/1412 23015G30KT
Pas de NOTAMs connus pour ce terrain.



MET'MAP, la Météo Aéronautique d'un coup d'oeil ! - Copyright ORBIFLY Décembre 2007 - Disclaimer

ORBIFLY MET'MAP TEAM :

Programmation & Développement : Alexandra Zaïnal
Conception & Développement : Baudouin d'Aumeries
Co-Programmation & Développement : Marc-Olivier Méhu
Soutien technique & logistique : Manuel Goepfert

Contact : metmap@orbifly.com




SOURCES & CREDITS :

   NOAA